Time;durP1;ratioP1;P1;durP2;ratioP2;P2;SDS_P1;SDS_P2;PMS_P1;PMS_P2;Temp;Humidity;BMP_temperature;BMP_pressure;BME280_temperature;BME280_humidity;BME280_pressure;Samples;Min_cycle;Max_cycle;Signal;HPM_P1;HPM_P2
2023/06/26 00:00:12;;;;;;;2.67;2.27;;;27.10;99.90;;;;;;5005313;28;20285;-88
2023/06/26 00:02:45;;;;;;;3.90;2.63;;;27.20;99.90;;;;;;5002255;28;20710;-87
2023/06/26 00:05:16;;;;;;;4.80;2.37;;;27.20;99.90;;;;;;5013309;28;20241;-88
2023/06/26 00:07:47;;;;;;;3.33;2.30;;;27.10;99.90;;;;;;5012846;28;20312;-88
2023/06/26 00:10:19;;;;;;;4.20;1.90;;;26.90;99.90;;;;;;5009255;28;20268;-87
2023/06/26 00:12:50;;;;;;;3.07;2.27;;;26.80;99.90;;;;;;5010833;28;20288;-87
2023/06/26 00:15:21;;;;;;;3.87;2.37;;;26.90;99.90;;;;;;5015362;28;20293;-88
2023/06/26 00:17:55;;;;;;;4.37;2.33;;;26.80;99.90;;;;;;5012834;28;20271;-87
2023/06/26 00:20:26;;;;;;;3.07;2.20;;;26.50;99.90;;;;;;5016752;28;20670;-86
2023/06/26 00:22:58;;;;;;;3.40;2.50;;;26.70;99.90;;;;;;5015514;28;20293;-87
2023/06/26 00:25:29;;;;;;;3.60;2.50;;;27.00;99.90;;;;;;5009550;28;20240;-87
2023/06/26 00:28:01;;;;;;;3.07;2.43;;;27.00;99.90;;;;;;5004837;28;20284;-86
2023/06/26 00:30:32;;;;;;;3.43;2.27;;;27.20;99.90;;;;;;4998269;28;20201;-87
2023/06/26 00:33:04;;;;;;;3.43;2.07;;;27.20;99.90;;;;;;5007403;28;20248;-86
2023/06/26 00:35:36;;;;;;;2.40;2.13;;;27.20;99.90;;;;;;5016347;28;20261;-87
2023/06/26 00:38:07;;;;;;;2.67;2.30;;;27.20;99.90;;;;;;5016834;28;20296;-87
2023/06/26 00:40:38;;;;;;;4.70;2.47;;;27.00;99.90;;;;;;5011009;28;20211;-86
2023/06/26 00:43:09;;;;;;;5.63;2.60;;;27.00;99.90;;;;;;5010566;28;20292;-86
2023/06/26 00:45:40;;;;;;;3.20;2.20;;;27.10;99.90;;;;;;5012124;28;20198;-86
2023/06/26 00:48:15;;;;;;;2.43;2.20;;;27.20;99.90;;;;;;5005665;28;20257;-86
2023/06/26 00:50:47;;;;;;;2.27;2.07;;;27.50;99.90;;;;;;5012898;28;20277;-88
2023/06/26 00:53:20;;;;;;;4.90;2.70;;;27.70;99.90;;;;;;5024877;28;20213;-87
2023/06/26 00:55:51;;;;;;;3.03;2.03;;;28.10;99.90;;;;;;5031045;28;20209;-89
2023/06/26 00:58:24;;;;;;;2.37;2.10;;;28.70;99.90;;;;;;5011339;28;20195;-88
2023/06/26 01:00:55;;;;;;;3.13;2.33;;;28.90;98.90;;;;;;4997509;28;20659;-88
2023/06/26 01:03:28;;;;;;;4.33;2.17;;;28.90;99.80;;;;;;5000345;28;20207;-88
2023/06/26 01:06:02;;;;;;;4.27;2.17;;;29.00;99.50;;;;;;5003365;28;20210;-89
2023/06/26 01:08:34;;;;;;;2.53;2.23;;;29.40;99.10;;;;;;5008638;28;20705;-88
2023/06/26 01:11:05;;;;;;;4.30;2.30;;;29.60;98.50;;;;;;5008105;28;20204;-89
2023/06/26 01:13:38;;;;;;;2.65;2.25;;;29.70;99.30;;;;;;5015265;28;20276;-89
2023/06/26 01:16:10;;;;;;;3.45;2.25;;;29.70;98.70;;;;;;5010411;28;20233;-89
2023/06/26 01:18:45;;;;;;;3.75;2.28;;;29.90;99.10;;;;;;4994682;28;20238;-87
2023/06/26 01:21:17;;;;;;;3.38;2.55;;;29.90;97.80;;;;;;4995729;28;20261;-89
2023/06/26 01:24:05;;;;;;;3.20;2.42;;;29.80;97.80;;;;;;5012805;28;20292;-89
2023/06/26 01:26:38;;;;;;;3.70;2.55;;;29.70;97.20;;;;;;5008136;28;20209;-87
2023/06/26 01:29:12;;;;;;;2.58;1.92;;;29.90;98.30;;;;;;5011782;28;20618;-86
2023/06/26 01:31:43;;;;;;;2.97;2.10;;;30.10;97.20;;;;;;5014108;28;20265;-87
2023/06/26 01:34:15;;;;;;;3.05;2.25;;;30.10;96.90;;;;;;5029302;28;20269;-86
2023/06/26 01:36:47;;;;;;;2.53;2.33;;;29.90;97.50;;;;;;5000018;28;20207;-88
2023/06/26 01:39:22;;;;;;;3.10;2.63;;;29.80;97.30;;;;;;4999105;28;20376;-86
2023/06/26 01:41:55;;;;;;;2.40;2.17;;;30.10;96.10;;;;;;5014627;28;20723;-88
2023/06/26 01:44:30;;;;;;;3.53;2.47;;;30.10;96.80;;;;;;5012458;28;20246;-87
2023/06/26 01:47:03;;;;;;;4.35;2.15;;;29.80;96.20;;;;;;5006602;28;20293;-86
2023/06/26 01:49:45;;;;;;;4.65;2.05;;;29.50;96.50;;;;;;5006593;28;20292;-87
2023/06/26 01:52:23;;;;;;;4.90;2.25;;;29.50;96.60;;;;;;5005664;28;20265;-85
2023/06/26 01:55:07;;;;;;;2.53;2.33;;;29.40;96.10;;;;;;5007686;28;20233;-87
2023/06/26 01:57:41;;;;;;;6.47;2.50;;;29.80;96.00;;;;;;5004804;28;20201;-86
2023/06/26 02:00:15;;;;;;;2.63;2.40;;;29.80;96.70;;;;;;5007226;28;20658;-85
2023/06/26 02:02:46;;;;;;;4.78;2.10;;;29.60;96.30;;;;;;5005820;28;20627;-84
2023/06/26 02:05:17;;;;;;;4.13;1.90;;;29.30;97.10;;;;;;5007723;28;20233;-84
2023/06/26 02:07:48;;;;;;;3.35;2.60;;;28.80;96.30;;;;;;5005120;28;20290;-86
2023/06/26 02:10:19;;;;;;;2.97;2.28;;;28.00;97.70;;;;;;5000351;28;20226;-85
2023/06/26 02:12:52;;;;;;;3.57;2.20;;;27.40;97.70;;;;;;5008096;28;20241;-85
2023/06/26 02:15:24;;;;;;;8.30;2.60;;;26.70;98.60;;;;;;5006050;28;20292;-92
2023/06/26 02:17:55;;;;;;;2.27;2.07;;;26.40;99.90;;;;;;5001704;28;20209;-84
2023/06/26 02:20:26;;;;;;;2.13;1.93;;;26.00;99.90;;;;;;5006361;28;20216;-84
2023/06/26 02:22:57;;;;;;;5.33;2.30;;;25.90;99.90;;;;;;5006835;28;20213;-85
2023/06/26 02:25:28;;;;;;;3.00;2.33;;;25.90;99.90;;;;;;5009922;28;20616;-82
2023/06/26 02:28:00;;;;;;;2.50;2.23;;;25.90;99.90;;;;;;5006782;28;20209;-84
2023/06/26 02:30:32;;;;;;;2.73;2.20;;;25.60;99.90;;;;;;5008253;28;20590;-82
2023/06/26 02:33:02;;;;;;;3.10;2.27;;;25.40;99.90;;;;;;5009146;28;20592;-84
2023/06/26 02:35:34;;;;;;;4.80;2.33;;;25.20;99.90;;;;;;5003611;28;20745;-82
2023/06/26 02:38:05;;;;;;;3.17;2.27;;;25.00;99.90;;;;;;5006664;28;20276;-85
2023/06/26 02:40:36;;;;;;;4.40;2.03;;;24.70;99.90;;;;;;5015311;28;20205;-85
2023/06/26 02:43:09;;;;;;;3.33;2.27;;;24.40;99.90;;;;;;5004333;28;20257;-84
2023/06/26 02:45:40;;;;;;;5.67;2.53;;;24.20;99.90;;;;;;5011379;28;20202;-84
2023/06/26 02:48:11;;;;;;;2.57;2.10;;;24.00;99.90;;;;;;5009142;28;20233;-84
2023/06/26 02:50:45;;;;;;;3.60;2.47;;;23.90;99.90;;;;;;5004277;28;20316;-84
2023/06/26 02:53:16;;;;;;;2.93;2.10;;;23.70;99.90;;;;;;5008524;28;20275;-86
2023/06/26 02:55:48;;;;;;;2.43;2.23;;;23.60;99.90;;;;;;5009614;28;20209;-86
2023/06/26 02:58:21;;;;;;;3.33;2.27;;;23.50;99.90;;;;;;5002527;28;20217;-86
2023/06/26 03:00:53;;;;;;;3.00;2.70;;;23.30;99.90;;;;;;5003193;28;20215;-85
2023/06/26 03:03:25;;;;;;;4.60;2.10;;;23.20;99.90;;;;;;5008705;28;20270;-88
2023/06/26 03:05:57;;;;;;;5.20;2.10;;;23.10;99.90;;;;;;5002356;28;20256;-86
2023/06/26 03:08:29;;;;;;;3.67;2.40;;;23.00;99.90;;;;;;5000902;28;20217;-87
2023/06/26 03:11:00;;;;;;;3.30;2.40;;;22.90;99.90;;;;;;5000531;28;20234;-87
2023/06/26 03:13:32;;;;;;;6.43;4.47;;;22.80;99.90;;;;;;5001538;28;20217;-86
2023/06/26 03:16:03;;;;;;;2.90;2.57;;;22.70;99.90;;;;;;5006614;28;20206;-86
2023/06/26 03:18:34;;;;;;;4.37;2.77;;;22.40;99.90;;;;;;4997396;28;20202;-87
2023/06/26 03:21:06;;;;;;;4.43;2.53;;;22.30;99.90;;;;;;5002679;28;20206;-86
2023/06/26 03:23:37;;;;;;;4.23;2.30;;;22.30;99.90;;;;;;4997253;28;20305;-87
2023/06/26 03:26:08;;;;;;;2.87;2.27;;;22.20;99.90;;;;;;5002915;28;20256;-85
2023/06/26 03:28:41;;;;;;;3.43;2.90;;;22.10;99.90;;;;;;5004799;28;20222;-88
2023/06/26 03:31:13;;;;;;;6.73;3.70;;;22.10;99.90;;;;;;5002604;28;20237;-86
2023/06/26 03:33:44;;;;;;;6.17;3.00;;;22.00;99.90;;;;;;5011863;28;20202;-85
2023/06/26 03:36:15;;;;;;;3.17;2.60;;;21.90;99.90;;;;;;5015176;28;20251;-86
2023/06/26 03:38:46;;;;;;;3.73;2.60;;;21.80;99.90;;;;;;4998213;28;20214;-85
2023/06/26 03:41:17;;;;;;;17.20;6.90;;;21.70;99.90;;;;;;5005970;28;21093;-85
2023/06/26 03:43:50;;;;;;;9.87;3.83;;;21.50;99.90;;;;;;5008469;28;20308;-86
2023/06/26 03:46:21;;;;;;;3.07;2.73;;;21.30;99.90;;;;;;5014094;28;20297;-86
2023/06/26 03:48:53;;;;;;;4.10;2.83;;;21.10;99.90;;;;;;5011148;28;20670;-87
2023/06/26 03:51:24;;;;;;;4.83;2.80;;;21.00;99.90;;;;;;5013382;28;20666;-86
2023/06/26 03:53:55;;;;;;;4.83;2.43;;;20.90;99.90;;;;;;5010844;28;20286;-86
2023/06/26 03:56:27;;;;;;;4.50;3.07;;;20.80;99.90;;;;;;5008122;28;20316;-87
2023/06/26 03:59:00;;;;;;;5.73;2.87;;;20.80;99.90;;;;;;5004250;28;20266;-86
2023/06/26 04:01:31;;;;;;;3.40;3.03;;;20.70;99.90;;;;;;5013617;28;20225;-86
2023/06/26 04:04:03;;;;;;;4.10;3.03;;;20.60;99.90;;;;;;5005204;28;20206;-86
2023/06/26 04:06:34;;;;;;;4.07;3.07;;;20.50;99.90;;;;;;5015219;28;20644;-86
2023/06/26 04:09:05;;;;;;;3.00;2.63;;;20.50;99.90;;;;;;4998701;28;20212;-86
2023/06/26 04:11:36;;;;;;;3.57;2.67;;;20.40;99.90;;;;;;5002668;28;20823;-86
2023/06/26 04:14:10;;;;;;;3.10;2.53;;;20.40;99.90;;;;;;5014839;28;20304;-86
2023/06/26 04:16:41;;;;;;;4.50;2.70;;;20.30;99.90;;;;;;5011089;28;20252;-86
2023/06/26 04:19:11;;;;;;;4.87;2.50;;;20.20;99.90;;;;;;4669519;28;9999693;-85
2023/06/26 04:21:43;;;;;;;4.40;2.40;;;20.20;99.90;;;;;;5019030;28;20280;-86
2023/06/26 04:24:15;;;;;;;3.23;2.50;;;20.20;99.90;;;;;;5009850;28;20262;-87
2023/06/26 04:26:47;;;;;;;9.67;2.53;;;20.10;99.90;;;;;;5011999;28;20287;-86
2023/06/26 04:29:19;;;;;;;2.97;2.30;;;20.10;99.90;;;;;;5008628;28;20198;-86
2023/06/26 04:31:50;;;;;;;3.83;2.53;;;20.10;99.90;;;;;;5007315;28;20324;-86
2023/06/26 04:34:21;;;;;;;3.93;2.27;;;20.00;99.90;;;;;;5013767;28;20300;-86
2023/06/26 04:36:52;;;;;;;3.57;2.47;;;20.00;99.90;;;;;;5015076;28;20694;-87
2023/06/26 04:39:23;;;;;;;2.80;2.40;;;19.90;99.90;;;;;;5012772;28;20210;-87
2023/06/26 04:41:54;;;;;;;2.60;2.40;;;19.90;99.90;;;;;;5015267;28;20205;-87
2023/06/26 04:44:27;;;;;;;4.63;2.20;;;19.80;99.90;;;;;;5011287;28;20217;-86
2023/06/26 04:46:58;;;;;;;2.63;2.40;;;19.80;99.90;;;;;;5007359;28;20241;-88
2023/06/26 04:49:29;;;;;;;3.40;2.50;;;19.80;99.90;;;;;;5007175;28;20267;-87
2023/06/26 04:52:01;;;;;;;4.37;2.20;;;19.80;99.90;;;;;;5012130;28;20702;-87
2023/06/26 04:54:32;;;;;;;2.63;2.40;;;19.80;99.90;;;;;;5001136;28;20687;-86
2023/06/26 04:57:03;;;;;;;3.53;2.20;;;19.80;99.90;;;;;;5002475;28;20249;-86
2023/06/26 04:59:36;;;;;;;2.70;2.20;;;19.80;99.90;;;;;;5006089;28;20238;-87
2023/06/26 05:02:08;;;;;;;3.53;2.27;;;19.70;99.90;;;;;;5006582;28;20324;-86
2023/06/26 05:04:42;;;;;;;2.40;2.20;;;19.70;99.90;;;;;;4999320;28;21049;-87
2023/06/26 05:07:14;;;;;;;2.67;2.03;;;19.70;99.90;;;;;;4999532;28;20216;-88
2023/06/26 05:09:46;;;;;;;2.77;2.37;;;19.60;99.90;;;;;;5008033;28;20225;-86
2023/06/26 05:12:18;;;;;;;2.30;2.10;;;19.60;99.90;;;;;;5010056;28;20295;-86
2023/06/26 05:14:51;;;;;;;2.27;2.00;;;19.60;99.90;;;;;;5012428;28;20225;-84
2023/06/26 05:17:22;;;;;;;2.07;1.87;;;19.50;99.90;;;;;;5010780;28;20214;-86
2023/06/26 05:19:53;;;;;;;2.30;2.10;;;19.50;99.90;;;;;;5012637;28;20248;-84
2023/06/26 05:22:25;;;;;;;2.63;2.30;;;19.50;99.90;;;;;;5011043;28;20229;-85
2023/06/26 05:25:00;;;;;;;4.03;2.13;;;19.40;99.90;;;;;;5014320;28;20216;-86
2023/06/26 05:27:32;;;;;;;3.20;2.07;;;19.40;99.90;;;;;;5004680;28;20662;-89
2023/06/26 05:30:05;;;;;;;3.73;2.20;;;19.30;99.90;;;;;;5010711;28;20201;-86
2023/06/26 05:32:37;;;;;;;2.47;2.27;;;19.20;99.90;;;;;;5000130;28;20939;-86
2023/06/26 05:35:09;;;;;;;2.20;2.00;;;19.20;99.90;;;;;;5003068;28;20252;-85
2023/06/26 05:37:41;;;;;;;3.10;2.30;;;19.10;99.90;;;;;;5005909;28;20729;-87
2023/06/26 05:40:13;;;;;;;3.47;2.20;;;19.00;99.90;;;;;;5010320;28;20201;-87
2023/06/26 05:42:45;;;;;;;2.37;2.03;;;19.00;99.90;;;;;;4993285;28;20202;-87
2023/06/26 05:45:19;;;;;;;2.33;2.13;;;18.90;99.90;;;;;;5002658;28;20238;-86
2023/06/26 05:47:51;;;;;;;3.47;2.63;;;18.80;99.90;;;;;;5001219;28;20214;-88
2023/06/26 05:50:23;;;;;;;3.10;2.30;;;18.80;99.90;;;;;;5009835;28;20199;-87
2023/06/26 05:52:55;;;;;;;2.20;1.93;;;18.80;99.90;;;;;;5002264;28;20260;-86
2023/06/26 05:55:27;;;;;;;3.47;2.23;;;18.80;99.90;;;;;;5011446;28;20265;-87
2023/06/26 05:58:00;;;;;;;3.50;2.13;;;18.70;99.90;;;;;;5010278;28;20739;-88
2023/06/26 06:00:34;;;;;;;2.90;2.50;;;18.60;99.90;;;;;;5012269;28;20217;-89
2023/06/26 06:03:06;;;;;;;3.07;2.30;;;18.50;99.90;;;;;;5009970;28;20229;-88
2023/06/26 06:05:37;;;;;;;5.40;2.13;;;18.50;99.90;;;;;;5005968;28;20233;-89
2023/06/26 06:08:09;;;;;;;3.93;2.30;;;18.40;99.90;;;;;;5010888;28;20296;-89
2023/06/26 06:10:40;;;;;;;5.10;2.10;;;18.30;99.90;;;;;;5010652;28;20210;-87
2023/06/26 06:13:11;;;;;;;3.57;2.20;;;18.20;99.90;;;;;;5017748;28;20209;-88
2023/06/26 06:15:45;;;;;;;3.63;2.50;;;18.10;99.90;;;;;;5013579;28;20202;-89
2023/06/26 06:18:16;;;;;;;4.63;2.53;;;18.10;99.90;;;;;;5017484;28;20292;-87
2023/06/26 06:20:47;;;;;;;3.00;2.53;;;18.00;99.90;;;;;;5025303;28;20201;-88
2023/06/26 06:23:18;;;;;;;3.00;2.70;;;18.00;99.90;;;;;;5020626;28;20206;-87
2023/06/26 06:25:49;;;;;;;4.60;2.73;;;18.00;99.90;;;;;;5002929;28;20245;-89
2023/06/26 06:28:20;;;;;;;3.17;2.43;;;18.10;99.90;;;;;;5011797;28;20292;-89
2023/06/26 06:30:54;;;;;;;3.33;2.40;;;18.00;99.90;;;;;;5014397;28;20218;-88
2023/06/26 06:33:25;;;;;;;3.60;2.90;;;18.00;99.90;;;;;;5013258;28;20683;-89
2023/06/26 06:35:56;;;;;;;3.70;2.53;;;18.00;99.90;;;;;;5006247;28;20844;-88
2023/06/26 06:38:28;;;;;;;2.97;2.30;;;18.00;99.90;;;;;;5011120;28;20567;-89
2023/06/26 06:40:59;;;;;;;4.87;2.60;;;18.00;99.90;;;;;;5014316;28;20327;-89
2023/06/26 06:43:30;;;;;;;3.23;2.60;;;18.00;99.90;;;;;;5006841;28;20603;-89
2023/06/26 06:46:03;;;;;;;2.97;2.07;;;18.00;99.90;;;;;;5013867;28;20201;-89
2023/06/26 06:48:34;;;;;;;3.97;2.67;;;18.00;99.90;;;;;;4996690;28;20245;-89
2023/06/26 06:51:06;;;;;;;2.80;2.60;;;18.00;99.90;;;;;;5004933;28;20264;-89
2023/06/26 06:53:39;;;;;;;2.97;2.30;;;17.90;99.90;;;;;;5012171;28;20642;-89
2023/06/26 06:56:11;;;;;;;3.10;2.80;;;17.90;99.90;;;;;;5014044;28;20241;-89
2023/06/26 06:58:45;;;;;;;4.50;2.87;;;17.80;99.90;;;;;;5003760;28;20749;-88
2023/06/26 07:01:18;;;;;;;3.77;2.53;;;17.70;99.90;;;;;;5011061;28;20286;-88
2023/06/26 07:03:50;;;;;;;4.77;2.50;;;17.70;99.90;;;;;;5006447;28;20206;-88
2023/06/26 07:06:21;;;;;;;2.67;2.20;;;17.60;99.90;;;;;;5013549;28;20209;-88
2023/06/26 07:08:54;;;;;;;4.40;2.20;;;17.60;99.90;;;;;;5008725;28;20205;-89
2023/06/26 07:11:25;;;;;;;2.53;2.33;;;17.50;99.90;;;;;;5000116;28;20201;-89
2023/06/26 07:13:57;;;;;;;3.27;2.67;;;17.50;99.90;;;;;;5006329;28;20209;-88
2023/06/26 07:16:30;;;;;;;4.63;2.70;;;17.40;99.90;;;;;;5010176;28;20272;-88
2023/06/26 07:19:02;;;;;;;2.87;2.30;;;17.30;99.90;;;;;;5012740;28;20219;-89
2023/06/26 07:21:33;;;;;;;5.43;2.80;;;17.20;99.90;;;;;;5009222;28;20671;-89
2023/06/26 07:24:04;;;;;;;3.73;2.23;;;17.20;99.90;;;;;;4999452;28;20234;-90
2023/06/26 07:26:35;;;;;;;3.03;2.73;;;17.10;99.90;;;;;;5003360;28;20202;-88
2023/06/26 07:29:15;;;;;;;3.23;2.50;;;17.10;99.90;;;;;;5005714;28;20201;-88
2023/06/26 07:31:51;;;;;;;3.20;2.70;;;17.00;99.90;;;;;;5008593;28;20238;-88
2023/06/26 07:34:22;;;;;;;2.87;2.43;;;17.00;99.90;;;;;;4994027;28;20237;-89
2023/06/26 07:36:53;;;;;;;3.20;2.60;;;17.00;99.90;;;;;;5008885;28;20285;-89
2023/06/26 07:39:25;;;;;;;3.50;2.60;;;16.90;99.90;;;;;;5008033;28;20717;-89
2023/06/26 07:41:58;;;;;;;2.80;2.40;;;16.90;99.90;;;;;;5012676;28;20205;-89
2023/06/26 07:44:29;;;;;;;4.50;2.43;;;16.90;99.90;;;;;;5012978;28;20241;-88
2023/06/26 07:47:02;;;;;;;3.07;2.77;;;16.90;99.90;;;;;;5002498;28;20229;-89
2023/06/26 07:49:33;;;;;;;2.77;2.53;;;17.00;99.90;;;;;;5013184;28;20217;-89
2023/06/26 07:52:05;;;;;;;3.97;2.60;;;17.00;99.90;;;;;;5005434;28;20745;-87
2023/06/26 07:54:37;;;;;;;3.60;2.80;;;17.10;99.90;;;;;;5011530;28;20570;-89
2023/06/26 07:57:09;;;;;;;2.90;2.60;;;17.10;99.90;;;;;;5001910;28;20784;-89
2023/06/26 07:59:41;;;;;;;3.60;2.63;;;17.00;99.90;;;;;;5006893;28;20634;-89
2023/06/26 08:02:14;;;;;;;3.83;2.40;;;17.00;99.90;;;;;;5002189;28;20759;-90
2023/06/26 08:04:46;;;;;;;2.80;2.60;;;17.00;99.90;;;;;;5011031;28;20244;-89
2023/06/26 08:07:18;;;;;;;3.50;2.60;;;17.00;99.90;;;;;;5003256;28;20202;-89
2023/06/26 08:09:50;;;;;;;3.40;3.10;;;16.90;99.90;;;;;;5003606;28;20209;-88
2023/06/26 08:12:21;;;;;;;4.17;3.00;;;16.90;99.90;;;;;;5012902;28;20229;-88
2023/06/26 08:14:53;;;;;;;5.07;3.03;;;16.90;99.90;;;;;;5004857;28;20732;-87
2023/06/26 08:17:26;;;;;;;3.63;2.70;;;16.90;99.90;;;;;;5003837;28;20190;-89
2023/06/26 08:19:59;;;;;;;2.73;2.53;;;16.90;99.90;;;;;;5030217;28;20610;-88
2023/06/26 08:22:30;;;;;;;3.03;2.70;;;16.90;99.90;;;;;;5025045;28;20198;-90
2023/06/26 08:25:02;;;;;;;5.57;3.00;;;16.80;99.90;;;;;;5012202;28;20233;-89
2023/06/26 08:27:33;;;;;;;3.43;2.80;;;16.80;99.90;;;;;;5007361;28;20214;-92
2023/06/26 08:30:05;;;;;;;3.80;2.87;;;16.70;99.90;;;;;;5014852;28;20212;-89
2023/06/26 08:32:38;;;;;;;3.43;2.87;;;16.70;99.90;;;;;;5016772;28;20261;-88
2023/06/26 08:35:10;;;;;;;10.40;3.00;;;16.60;99.90;;;;;;5008034;28;20227;-90
2023/06/26 08:37:41;;;;;;;4.63;2.67;;;16.60;99.90;;;;;;5032861;28;20289;-89
2023/06/26 08:40:14;;;;;;;3.17;2.90;;;16.60;99.90;;;;;;5020129;28;20281;-88
2023/06/26 08:42:45;;;;;;;3.37;2.97;;;16.60;99.90;;;;;;5017169;28;20261;-89
2023/06/26 08:45:16;;;;;;;4.30;2.63;;;16.50;99.90;;;;;;4660224;28;9999963;-90
2023/06/26 08:47:54;;;;;;;5.33;2.90;;;16.50;99.90;;;;;;4996014;28;20202;-89
2023/06/26 08:50:28;;;;;;;4.73;3.33;;;16.50;99.90;;;;;;5012289;28;20221;-89
2023/06/26 08:53:06;;;;;;;4.37;2.87;;;16.50;99.90;;;;;;5008274;28;20233;-89
2023/06/26 08:55:40;;;;;;;3.97;2.80;;;16.50;99.90;;;;;;5012806;28;20214;-89
2023/06/26 08:58:12;;;;;;;3.73;3.10;;;16.40;99.90;;;;;;5012193;28;20226;-89
2023/06/26 09:00:43;;;;;;;3.60;2.63;;;16.40;99.90;;;;;;5017592;28;20296;-88
2023/06/26 09:03:17;;;;;;;3.17;2.83;;;16.30;99.90;;;;;;5015470;28;20271;-89
2023/06/26 09:05:48;;;;;;;4.83;2.93;;;16.20;99.90;;;;;;4997328;28;20210;-89
2023/06/26 09:08:19;;;;;;;4.47;3.00;;;16.20;99.90;;;;;;5003866;28;20306;-88
2023/06/26 09:10:51;;;;;;;4.90;3.10;;;16.10;99.90;;;;;;5007220;28;20202;-88
2023/06/26 09:13:23;;;;;;;8.33;3.53;;;16.00;99.90;;;;;;5012047;28;20269;-89
2023/06/26 09:16:00;;;;;;;5.03;3.27;;;15.90;99.90;;;;;;5015553;28;20573;-89
2023/06/26 09:18:35;;;;;;;4.20;2.90;;;15.90;99.90;;;;;;4999826;28;20212;-86
2023/06/26 09:21:09;;;;;;;3.57;2.73;;;15.80;99.90;;;;;;5025324;28;20292;-89
2023/06/26 09:23:42;;;;;;;7.30;3.23;;;15.80;99.90;;;;;;5002457;28;20229;-89
2023/06/26 09:26:16;;;;;;;3.60;2.90;;;15.80;99.90;;;;;;5014918;28;20244;-89
2023/06/26 09:28:48;;;;;;;6.10;3.20;;;15.70;99.90;;;;;;5003124;28;20322;-89
2023/06/26 09:31:20;;;;;;;4.63;3.13;;;15.70;99.90;;;;;;5013152;28;20265;-88
2023/06/26 09:34:12;;;;;;;4.30;3.30;;;15.70;99.90;;;;;;5012998;28;20248;-89
2023/06/26 09:36:46;;;;;;;4.20;3.00;;;15.60;99.90;;;;;;4998090;28;20298;-89
2023/06/26 09:39:17;;;;;;;4.80;2.83;;;15.60;99.90;;;;;;5015174;28;20704;-90
2023/06/26 09:41:49;;;;;;;3.60;3.00;;;15.60;99.90;;;;;;5014327;28;20656;-89
2023/06/26 09:44:21;;;;;;;5.23;3.27;;;15.60;99.90;;;;;;5020366;28;20669;-90
2023/06/26 09:46:53;;;;;;;2.90;2.60;;;15.50;99.90;;;;;;5020337;28;20284;-88
2023/06/26 09:49:27;;;;;;;3.63;2.80;;;15.50;99.90;;;;;;5020528;28;20726;-90
2023/06/26 09:52:03;;;;;;;3.57;2.67;;;15.50;99.90;;;;;;5022348;28;20209;-89
2023/06/26 09:54:36;;;;;;;2.93;2.40;;;15.50;99.90;;;;;;5019126;28;20287;-88
2023/06/26 09:57:12;;;;;;;4.23;2.63;;;15.40;99.90;;;;;;5025900;28;20214;-88
2023/06/26 09:59:44;;;;;;;5.47;2.63;;;15.30;99.90;;;;;;5020019;28;20332;-89
2023/06/26 10:02:15;;;;;;;3.43;2.70;;;15.30;99.90;;;;;;5021745;28;20209;-90
2023/06/26 10:04:49;;;;;;;3.03;2.70;;;15.30;99.90;;;;;;5021324;28;20215;-89
2023/06/26 10:07:22;;;;;;;3.57;2.80;;;15.20;99.90;;;;;;5004256;28;20286;-89
2023/06/26 10:09:55;;;;;;;3.33;2.43;;;15.20;99.90;;;;;;5014090;28;20205;-89
2023/06/26 10:12:30;;;;;;;5.63;2.70;;;15.10;99.90;;;;;;5006922;28;20235;-89
2023/06/26 10:15:04;;;;;;;2.63;2.43;;;15.10;99.90;;;;;;5016175;28;20327;-89
2023/06/26 10:17:38;;;;;;;4.23;2.40;;;15.00;99.90;;;;;;5017768;28;20222;-90
2023/06/26 10:20:13;;;;;;;5.33;2.43;;;14.90;99.90;;;;;;5018933;28;20214;-88
2023/06/26 10:22:48;;;;;;;3.53;2.70;;;14.80;99.90;;;;;;5030037;28;20205;-89
2023/06/26 10:25:21;;;;;;;3.97;2.40;;;14.80;99.90;;;;;;5019928;28;20239;-88
2023/06/26 10:27:55;;;;;;;4.03;2.73;;;14.70;99.90;;;;;;5018138;28;20201;-88
2023/06/26 10:30:30;;;;;;;4.30;2.70;;;14.80;99.90;;;;;;5018738;28;20213;-88
2023/06/26 10:33:03;;;;;;;4.67;2.83;;;14.70;99.90;;;;;;5017649;28;20724;-88
2023/06/26 10:35:42;;;;;;;5.07;3.03;;;14.60;99.90;;;;;;5011912;28;20226;-88
2023/06/26 10:38:14;;;;;;;3.13;2.33;;;14.50;99.90;;;;;;5013236;28;20202;-89
2023/06/26 10:40:48;;;;;;;3.43;2.33;;;14.50;99.90;;;;;;5021127;28;20229;-89
2023/06/26 10:43:20;;;;;;;5.27;2.47;;;14.40;99.90;;;;;;5010271;28;20667;-88
2023/06/26 10:45:56;;;;;;;3.67;2.20;;;14.40;99.90;;;;;;5018327;28;20214;-90
2023/06/26 10:48:31;;;;;;;4.77;2.30;;;14.30;99.90;;;;;;5010807;28;20240;-88
2023/06/26 10:51:16;;;;;;;3.00;2.57;;;14.30;99.90;;;;;;5017972;28;20209;-87
2023/06/26 10:53:55;;;;;;;4.33;2.60;;;14.20;99.90;;;;;;5016475;28;20710;-88
2023/06/26 10:56:45;;;;;;;3.20;2.20;;;14.20;99.90;;;;;;5015686;28;20271;-88
2023/06/26 10:59:18;;;;;;;5.57;2.70;;;14.20;99.90;;;;;;5013609;28;20194;-88
2023/06/26 11:01:57;;;;;;;5.93;2.60;;;14.10;99.90;;;;;;5008404;28;20337;-89
2023/06/26 11:04:41;;;;;;;3.03;2.63;;;14.10;99.90;;;;;;5013717;28;20301;-87
2023/06/26 11:07:22;;;;;;;4.60;2.60;;;14.00;99.90;;;;;;5010034;28;20205;-89
2023/06/26 11:10:01;;;;;;;3.87;2.10;;;14.00;99.90;;;;;;5010238;28;20194;-89
2023/06/26 11:12:38;;;;;;;2.80;2.43;;;14.00;99.90;;;;;;5010828;28;20214;-89
2023/06/26 11:15:14;;;;;;;5.43;2.47;;;13.90;99.90;;;;;;5016527;28;20276;-88
2023/06/26 11:17:46;;;;;;;3.73;2.67;;;13.80;99.90;;;;;;5017627;28;20549;-89
2023/06/26 11:20:18;;;;;;;4.57;2.77;;;13.70;99.90;;;;;;5012556;28;20205;-88
2023/06/26 11:22:57;;;;;;;6.00;2.73;;;13.70;99.90;;;;;;5005220;28;20225;-88
2023/06/26 11:25:29;;;;;;;4.60;2.73;;;13.60;99.90;;;;;;5014111;28;20265;-88
2023/06/26 11:28:03;;;;;;;2.87;2.50;;;13.60;99.90;;;;;;5014752;28;20214;-88
2023/06/26 11:30:36;;;;;;;5.07;3.03;;;13.60;99.90;;;;;;5019917;28;20237;-88
2023/06/26 11:33:10;;;;;;;4.50;2.77;;;13.50;99.90;;;;;;5020909;28;20232;-89
2023/06/26 11:35:41;;;;;;;4.73;2.50;;;13.50;99.90;;;;;;5007037;28;20238;-88
2023/06/26 11:38:14;;;;;;;3.30;2.70;;;13.30;99.90;;;;;;5008367;28;20221;-87
2023/06/26 11:40:47;;;;;;;3.80;2.87;;;13.20;99.90;;;;;;5017511;28;20214;-88
2023/06/26 11:43:18;;;;;;;4.57;3.07;;;13.20;99.90;;;;;;5013164;28;20269;-89
2023/06/26 11:45:52;;;;;;;3.80;2.70;;;13.20;99.90;;;;;;5005637;28;20218;-88
2023/06/26 11:48:23;;;;;;;5.97;2.90;;;13.30;99.90;;;;;;5011001;28;20194;-87
2023/06/26 11:50:56;;;;;;;3.40;2.80;;;13.20;99.90;;;;;;5027022;28;20206;-88
2023/06/26 11:53:29;;;;;;;4.10;2.60;;;13.20;99.90;;;;;;5008621;28;20615;-87
2023/06/26 11:56:01;;;;;;;4.93;2.80;;;13.20;99.90;;;;;;5009149;28;20235;-88
2023/06/26 11:58:33;;;;;;;2.87;2.53;;;13.10;99.90;;;;;;5007372;28;20296;-87
2023/06/26 12:01:04;;;;;;;3.53;3.20;;;13.10;99.90;;;;;;5006994;28;20233;-88
2023/06/26 12:03:35;;;;;;;4.57;3.27;;;13.10;99.90;;;;;;4999622;28;20579;-88
2023/06/26 12:06:07;;;;;;;5.37;2.77;;;13.10;99.90;;;;;;4998997;28;20206;-87
2023/06/26 12:08:41;;;;;;;6.30;3.07;;;13.10;99.90;;;;;;5003776;28;20297;-88
2023/06/26 12:11:13;;;;;;;3.60;2.90;;;13.10;99.90;;;;;;5018195;28;20237;-87
2023/06/26 12:13:46;;;;;;;6.13;2.97;;;13.00;99.90;;;;;;5011409;28;20549;-88
2023/06/26 12:16:18;;;;;;;5.23;2.87;;;13.00;99.90;;;;;;4998893;28;20257;-88
2023/06/26 12:18:49;;;;;;;6.20;3.20;;;13.00;99.90;;;;;;5011875;28;20662;-88
2023/06/26 12:21:48;;;;;;;6.07;2.80;;;13.00;99.90;;;;;;5013106;28;20616;-88
2023/06/26 12:24:22;;;;;;;4.77;3.40;;;13.00;99.90;;;;;;5016713;28;20198;-88
2023/06/26 12:26:56;;;;;;;4.63;2.80;;;12.90;99.90;;;;;;5019307;28;20232;-87
2023/06/26 12:29:34;;;;;;;3.73;2.80;;;12.90;99.90;;;;;;5034109;28;20217;-88
2023/06/26 12:32:06;;;;;;;3.63;2.73;;;12.90;99.90;;;;;;5013826;28;20198;-88
2023/06/26 12:34:38;;;;;;;4.83;3.00;;;12.90;99.90;;;;;;5015760;28;20237;-88
2023/06/26 12:37:13;;;;;;;3.00;2.67;;;12.90;99.90;;;;;;5003477;28;20210;-88
2023/06/26 12:39:54;;;;;;;4.10;2.90;;;12.80;99.90;;;;;;5009120;28;20292;-88
2023/06/26 12:42:26;;;;;;;2.97;2.60;;;12.90;99.90;;;;;;4998774;28;20210;-88
2023/06/26 12:44:58;;;;;;;4.50;2.80;;;12.90;99.90;;;;;;5022192;28;20252;-88
2023/06/26 12:47:31;;;;;;;4.40;3.07;;;12.90;99.90;;;;;;5028475;28;20201;-89
2023/06/26 12:50:07;;;;;;;5.20;3.00;;;12.90;99.90;;;;;;5010468;28;20210;-88
2023/06/26 12:52:39;;;;;;;5.63;3.10;;;12.80;99.90;;;;;;5019047;28;20212;-88
2023/06/26 12:55:13;;;;;;;5.40;2.63;;;12.80;99.90;;;;;;5025507;28;20708;-86
2023/06/26 12:57:44;;;;;;;4.33;2.80;;;12.80;99.90;;;;;;4997001;28;20220;-88
2023/06/26 13:00:16;;;;;;;5.87;3.40;;;12.90;99.90;;;;;;5013242;28;20202;-87
2023/06/26 13:02:48;;;;;;;5.10;2.93;;;12.90;99.90;;;;;;5022426;28;20206;-87
2023/06/26 13:05:20;;;;;;;6.63;3.27;;;12.90;99.90;;;;;;5016924;28;20241;-88
2023/06/26 13:07:51;;;;;;;4.33;2.90;;;13.00;99.90;;;;;;5000058;28;20237;-88
2023/06/26 13:10:24;;;;;;;6.23;3.10;;;13.00;99.90;;;;;;5007241;28;20313;-87
2023/06/26 13:12:55;;;;;;;6.07;3.40;;;13.10;99.90;;;;;;5008753;28;20213;-88